Effie, Minnesota
Current Conditions -  °F | °C
As of 7:33 PM on Tuesday 27 Jan 2015 (Local Time) from KFOZ Reporting Station
Broken Clouds Broken Clouds  
Wind Chill: -4°   Ceiling: 12000
Heat Index: -1°   Visibility: 10mi
Dew Point: -4°   Wind: 6mph
Humidity: 80%   Direction: 140°SE
Pressure: 30.06"   Gusts: NA
Location:  47.84°N, 93.64°W
Report Text: KFOZ 280133Z AUTO 14005KT 10SM BKN120 M01/M04 A3006 RMK AO2
Loading
Personal Weather Stations






























Interactive Weather Map New forecast layout! Learn more

10-Day Weather Forecast

Advertisements
Track Severe Weather on mobile